createdAt,value
2019-03-01T00:00:58.557Z,8.10
2019-03-01T00:11:25.431Z,8.00
2019-03-01T00:21:36.480Z,7.90
2019-03-01T00:31:53.676Z,7.90
2019-03-01T00:42:20.137Z,7.80
2019-03-01T00:52:34.877Z,7.90
2019-03-01T01:02:41.991Z,7.70
2019-03-01T01:12:47.639Z,7.50
2019-03-01T01:22:53.250Z,7.50
2019-03-01T01:32:58.812Z,7.50
2019-03-01T01:43:04.377Z,7.40
2019-03-01T01:53:09.884Z,7.40
2019-03-01T02:03:15.435Z,7.50
2019-03-01T02:13:20.993Z,7.20
2019-03-01T02:23:26.480Z,7.10
2019-03-01T02:33:32.058Z,7.00
2019-03-01T02:43:37.579Z,7.00
2019-03-01T02:53:43.141Z,6.90
2019-03-01T03:03:48.655Z,6.90
2019-03-01T03:13:54.164Z,6.70
2019-03-01T03:23:59.719Z,6.50
2019-03-01T03:34:05.325Z,6.50
2019-03-01T03:44:11.017Z,6.40
2019-03-01T03:54:16.528Z,6.30
2019-03-01T04:04:22.039Z,6.20
2019-03-01T04:14:27.593Z,6.20
2019-03-01T04:24:39.032Z,6.00
2019-03-01T04:34:44.567Z,6.20
2019-03-01T04:44:50.079Z,6.00
2019-03-01T04:55:03.131Z,6.00
2019-03-01T05:05:08.671Z,6.30
2019-03-01T05:15:18.090Z,6.70
2019-03-01T05:25:23.608Z,6.80
2019-03-01T05:35:29.183Z,6.00
2019-03-01T05:45:34.796Z,5.90
2019-03-01T05:55:40.397Z,6.20
2019-03-01T06:05:55.428Z,6.80
2019-03-01T06:16:16.013Z,6.90
2019-03-01T06:26:35.864Z,6.30
2019-03-01T06:37:05.419Z,6.30
2019-03-01T06:47:41.670Z,6.10
2019-03-01T06:57:47.184Z,6.30
2019-03-01T07:07:52.713Z,6.50
2019-03-01T07:17:58.409Z,6.70
2019-03-01T07:28:03.998Z,6.80
2019-03-01T07:38:09.595Z,6.30
2019-03-01T07:48:15.136Z,6.30
2019-03-01T07:58:21.772Z,6.20
2019-03-01T08:08:27.857Z,6.80
2019-03-01T08:18:33.482Z,6.90
2019-03-01T08:28:39.099Z,7.30
2019-03-01T08:38:44.682Z,7.20
2019-03-01T08:48:50.200Z,7.20
2019-03-01T08:58:55.721Z,7.20
2019-03-01T09:09:01.289Z,7.00
2019-03-01T09:19:08.460Z,6.70
2019-03-01T09:29:18.555Z,6.80
2019-03-01T09:39:21.308Z,6.90
2019-03-01T09:49:28.817Z,6.60
2019-03-01T09:59:34.348Z,6.70
2019-03-01T10:09:39.906Z,6.40
2019-03-01T10:19:45.557Z,6.40
2019-03-01T10:29:51.283Z,6.60
2019-03-01T10:39:56.912Z,6.60
2019-03-01T10:50:02.427Z,6.40
2019-03-01T11:00:16.406Z,6.40
2019-03-01T11:10:30.714Z,6.70
2019-03-01T11:20:36.263Z,7.30
2019-03-01T11:30:42.912Z,7.40
2019-03-01T11:40:48.459Z,7.80
2019-03-01T11:50:54.073Z,7.80
2019-03-01T12:00:59.606Z,8.00
2019-03-01T12:11:05.269Z,7.70
2019-03-01T12:21:10.902Z,7.90
2019-03-01T12:31:16.566Z,7.70
2019-03-01T12:41:22.273Z,8.10
2019-03-01T12:51:33.772Z,8.30
2019-03-01T13:01:39.313Z,7.80
2019-03-01T13:11:45.044Z,7.30
2019-03-01T13:21:50.835Z,8.10
2019-03-01T13:31:57.674Z,7.70
2019-03-01T13:42:03.444Z,7.00
2019-03-01T13:52:09.088Z,6.80
2019-03-01T14:02:14.911Z,6.40
2019-03-01T14:12:21.718Z,6.80
2019-03-01T14:22:28.225Z,6.70
2019-03-01T14:32:34.001Z,6.00
2019-03-01T14:42:39.751Z,5.80
2019-03-01T14:52:45.269Z,5.60
2019-03-01T15:03:15.961Z,5.50
2019-03-01T15:13:16.380Z,5.50
2019-03-01T15:23:24.085Z,5.50
2019-03-01T15:33:29.262Z,5.30
2019-03-01T15:43:36.085Z,5.00
2019-03-01T15:53:41.491Z,5.00
2019-03-01T16:03:46.865Z,4.90
2019-03-01T16:13:54.364Z,4.80
2019-03-01T16:23:59.859Z,4.70
2019-03-01T16:34:05.336Z,4.60
2019-03-01T16:44:11.887Z,4.60
2019-03-01T16:54:17.256Z,4.50
2019-03-01T17:04:27.162Z,4.50
2019-03-01T17:14:29.777Z,4.60
2019-03-01T17:24:35.142Z,4.50
2019-03-01T17:34:40.535Z,4.50
2019-03-01T17:44:45.894Z,4.40
2019-03-01T17:54:51.283Z,4.40
2019-03-01T18:04:56.702Z,4.70
2019-03-01T18:15:02.045Z,4.60
2019-03-01T18:25:12.523Z,4.40
2019-03-01T18:35:17.894Z,4.20
2019-03-01T18:45:24.658Z,4.10
2019-03-01T18:55:30.037Z,4.20
2019-03-01T19:05:40.345Z,5.00
2019-03-01T19:15:48.081Z,4.70
2019-03-01T19:25:54.074Z,4.60
2019-03-01T19:36:03.262Z,4.40
2019-03-01T19:46:07.649Z,4.30
2019-03-01T19:56:13.087Z,4.20
2019-03-01T20:06:18.555Z,4.40
2019-03-01T20:16:25.024Z,4.40
2019-03-01T20:26:31.469Z,4.20
2019-03-01T20:36:38.592Z,4.50
2019-03-01T20:46:45.566Z,4.10
2019-03-01T20:56:51.653Z,3.90
2019-03-01T21:06:57.943Z,3.60
2019-03-01T21:17:03.624Z,3.50
2019-03-01T21:27:10.526Z,3.20
2019-03-01T21:37:16.625Z,3.20
2019-03-01T21:47:22.404Z,3.50
2019-03-01T21:57:31.128Z,3.20
2019-03-01T22:07:37.139Z,3.20
2019-03-01T22:17:41.976Z,2.90
2019-03-01T22:27:47.332Z,2.70
2019-03-01T22:37:52.703Z,2.60
2019-03-01T22:47:58.070Z,2.20
2019-03-01T22:58:05.535Z,2.00
2019-03-01T23:08:10.444Z,2.00
2019-03-01T23:18:15.821Z,2.40
2019-03-01T23:28:22.303Z,2.60
2019-03-01T23:38:27.680Z,1.90
2019-03-01T23:48:33.024Z,1.70
2019-03-01T23:58:38.406Z,1.70
